Time;durP1;ratioP1;P1;durP2;ratioP2;P2;SDS_P1;SDS_P2;PMS_P1;PMS_P2;Temp;Humidity;BMP_temperature;BMP_pressure;BME280_temperature;BME280_humidity;BME280_pressure;Samples;Min_cycle;Max_cycle;Signal;HPM_P1;HPM_P2
2023/09/18 00:01:57;;;;;;;57.03;2.13;;;;;;;;;;4934433;29;20464;-72
2023/09/18 00:04:24;;;;;;;56.90;2.73;;;;;;;;;;4934147;29;20446;-71
2023/09/18 00:06:52;;;;;;;56.37;2.13;;;;;;;;;;4934063;29;20473;-73
2023/09/18 00:09:19;;;;;;;56.87;2.60;;;;;;;;;;4934254;29;20450;-72
2023/09/18 00:11:47;;;;;;;56.90;2.20;;;;;;;;;;4934162;29;20961;-71
2023/09/18 00:14:14;;;;;;;56.70;2.40;;;;;;;;;;4939839;29;20488;-72
2023/09/18 00:16:41;;;;;;;57.53;3.90;;;;;;;;;;4942472;29;20477;-71
2023/09/18 00:19:08;;;;;;;56.80;2.53;;;;;;;;;;4937487;28;20550;-72
2023/09/18 00:21:36;;;;;;;56.97;2.33;;;;;;;;;;4950084;29;20460;-72
2023/09/18 00:24:04;;;;;;;58.07;3.23;;;;;;;;;;4948838;29;20803;-71
2023/09/18 00:26:31;;;;;;;56.63;2.43;;;;;;;;;;4934685;28;20476;-72
2023/09/18 00:28:58;;;;;;;56.40;2.10;;;;;;;;;;4933646;29;20927;-71
2023/09/18 00:31:26;;;;;;;57.40;2.80;;;;;;;;;;4933898;29;20476;-71
2023/09/18 00:33:53;;;;;;;56.80;2.17;;;;;;;;;;4933669;29;20486;-71
2023/09/18 00:36:20;;;;;;;56.50;2.40;;;;;;;;;;4949523;29;20827;-72
2023/09/18 00:38:47;;;;;;;56.67;2.40;;;;;;;;;;4933601;29;20501;-71
2023/09/18 00:41:15;;;;;;;56.57;2.40;;;;;;;;;;4933787;29;20457;-72
2023/09/18 00:43:43;;;;;;;56.77;2.70;;;;;;;;;;4933865;29;20476;-73
2023/09/18 00:46:10;;;;;;;58.17;2.53;;;;;;;;;;4933564;29;20460;-72
2023/09/18 00:48:37;;;;;;;57.30;2.20;;;;;;;;;;4952596;29;20964;-70
2023/09/18 00:51:04;;;;;;;56.27;2.33;;;;;;;;;;4952791;28;20957;-72
2023/09/18 00:53:32;;;;;;;57.97;2.83;;;;;;;;;;4952779;28;20579;-71
2023/09/18 00:56:01;;;;;;;56.57;2.30;;;;;;;;;;4952605;28;20452;-72
2023/09/18 00:58:29;;;;;;;57.30;2.53;;;;;;;;;;4952380;28;20973;-72
2023/09/18 01:00:57;;;;;;;56.27;2.30;;;;;;;;;;4952560;28;20453;-72
2023/09/18 01:03:25;;;;;;;56.63;2.67;;;;;;;;;;4952773;28;20800;-72
2023/09/18 01:05:52;;;;;;;56.30;2.20;;;;;;;;;;4952618;28;20457;-72
2023/09/18 01:08:19;;;;;;;56.57;2.27;;;;;;;;;;4952565;28;20469;-72
2023/09/18 01:10:50;;;;;;;56.47;2.20;;;;;;;;;;4952761;28;20457;-71
2023/09/18 01:13:21;;;;;;;56.23;2.10;;;;;;;;;;4952433;28;20498;-72
2023/09/18 01:15:53;;;;;;;56.30;2.67;;;;;;;;;;4952831;28;20445;-72
2023/09/18 01:18:20;;;;;;;56.80;2.30;;;;;;;;;;4952462;28;20480;-72
2023/09/18 01:20:47;;;;;;;56.87;2.60;;;;;;;;;;4952720;28;20449;-71
2023/09/18 01:23:16;;;;;;;59.57;3.50;;;;;;;;;;4952586;28;20448;-70
2023/09/18 01:25:43;;;;;;;56.50;2.30;;;;;;;;;;4952367;28;20453;-71
2023/09/18 01:28:10;;;;;;;56.97;2.37;;;;;;;;;;4952383;28;20475;-72
2023/09/18 01:30:38;;;;;;;56.60;2.50;;;;;;;;;;4952526;28;20452;-72
2023/09/18 01:33:05;;;;;;;56.83;2.60;;;;;;;;;;4952491;28;20492;-71
2023/09/18 01:35:33;;;;;;;60.90;2.93;;;;;;;;;;4952395;28;20449;-71
2023/09/18 01:38:01;;;;;;;57.57;2.80;;;;;;;;;;4952142;28;20504;-71
2023/09/18 01:40:29;;;;;;;57.80;2.73;;;;;;;;;;4954185;28;20460;-72
2023/09/18 01:42:56;;;;;;;57.67;2.57;;;;;;;;;;4956162;28;20456;-71
2023/09/18 01:45:23;;;;;;;56.33;2.33;;;;;;;;;;4955915;28;20451;-72
2023/09/18 01:47:51;;;;;;;57.03;2.57;;;;;;;;;;4955744;28;20465;-72
2023/09/18 01:50:18;;;;;;;56.67;2.20;;;;;;;;;;4955904;28;20453;-72
2023/09/18 01:52:45;;;;;;;56.40;2.40;;;;;;;;;;4955687;28;20449;-71
2023/09/18 01:55:12;;;;;;;56.37;2.10;;;;;;;;;;4955584;28;20529;-72
2023/09/18 01:57:41;;;;;;;56.90;2.67;;;;;;;;;;4955368;28;20533;-70
2023/09/18 02:00:09;;;;;;;56.17;2.20;;;;;;;;;;4954973;28;20825;-72
2023/09/18 02:02:37;;;;;;;56.60;3.00;;;;;;;;;;4955506;28;20459;-72
2023/09/18 02:05:04;;;;;;;56.77;2.50;;;;;;;;;;4955664;28;20445;-72
2023/09/18 02:07:31;;;;;;;56.70;2.20;;;;;;;;;;4955122;28;20481;-71
2023/09/18 02:09:58;;;;;;;56.17;2.30;;;;;;;;;;4955650;28;20707;-72
2023/09/18 02:12:25;;;;;;;56.40;2.10;;;;;;;;;;4955351;28;20455;-71
2023/09/18 02:14:57;;;;;;;56.53;2.20;;;;;;;;;;4949577;28;20497;-71
2023/09/18 02:17:24;;;;;;;58.53;2.60;;;;;;;;;;4944569;28;21048;-72
2023/09/18 02:19:51;;;;;;;56.33;2.27;;;;;;;;;;4943104;28;20882;-72
2023/09/18 02:22:18;;;;;;;56.90;2.30;;;;;;;;;;4951947;29;20945;-73
2023/09/18 02:24:45;;;;;;;56.60;2.53;;;;;;;;;;4936229;29;20442;-72
2023/09/18 02:27:12;;;;;;;56.77;2.70;;;;;;;;;;4935889;29;20473;-73
2023/09/18 02:29:39;;;;;;;56.60;2.27;;;;;;;;;;4936348;29;20457;-73
2023/09/18 02:32:09;;;;;;;57.10;2.63;;;;;;;;;;4948486;29;20459;-73
2023/09/18 02:34:37;;;;;;;56.37;2.30;;;;;;;;;;4939148;28;21005;-73
2023/09/18 02:37:04;;;;;;;56.30;2.10;;;;;;;;;;4954739;28;20995;-72
2023/09/18 02:39:31;;;;;;;57.47;3.53;;;;;;;;;;4955011;28;20476;-73
2023/09/18 02:41:59;;;;;;;59.80;2.37;;;;;;;;;;4955070;28;20536;-73
2023/09/18 02:44:26;;;;;;;56.97;2.53;;;;;;;;;;4954759;28;20453;-72
2023/09/18 02:46:53;;;;;;;57.07;2.43;;;;;;;;;;4954974;28;20477;-73
2023/09/18 02:49:22;;;;;;;58.90;2.47;;;;;;;;;;4954590;28;20453;-72
2023/09/18 02:51:49;;;;;;;56.20;2.00;;;;;;;;;;4943213;29;20795;-72
2023/09/18 02:54:16;;;;;;;56.50;2.70;;;;;;;;;;4935610;29;20544;-72
2023/09/18 02:56:44;;;;;;;57.60;3.43;;;;;;;;;;4954297;29;21044;-72
2023/09/18 02:59:11;;;;;;;56.53;2.40;;;;;;;;;;4954781;28;20476;-73
2023/09/18 03:01:38;;;;;;;56.50;2.60;;;;;;;;;;4954809;28;20460;-72
2023/09/18 03:04:05;;;;;;;57.57;3.70;;;;;;;;;;4954586;28;20933;-72
2023/09/18 03:06:34;;;;;;;56.90;2.77;;;;;;;;;;4954386;28;20479;-72
2023/09/18 03:09:02;;;;;;;56.17;2.23;;;;;;;;;;4954332;28;20556;-72
2023/09/18 03:11:29;;;;;;;57.00;2.83;;;;;;;;;;4954564;28;20878;-72
2023/09/18 03:13:56;;;;;;;56.87;2.43;;;;;;;;;;4954310;28;20485;-73
2023/09/18 03:16:23;;;;;;;56.90;2.57;;;;;;;;;;4954103;28;20950;-73
2023/09/18 03:18:50;;;;;;;56.57;2.30;;;;;;;;;;4954336;28;20825;-72
2023/09/18 03:21:17;;;;;;;56.47;2.33;;;;;;;;;;4954326;28;20452;-73
2023/09/18 03:23:45;;;;;;;56.53;2.70;;;;;;;;;;4953993;28;20449;-72
2023/09/18 03:26:13;;;;;;;56.23;2.27;;;;;;;;;;4954165;28;20456;-73
2023/09/18 03:28:40;;;;;;;56.60;2.30;;;;;;;;;;4954078;28;20457;-73
2023/09/18 03:31:07;;;;;;;57.00;3.23;;;;;;;;;;4954389;28;20449;-73
2023/09/18 03:33:34;;;;;;;57.00;2.90;;;;;;;;;;4954330;28;20452;-73
2023/09/18 03:36:01;;;;;;;57.43;3.33;;;;;;;;;;4954059;28;20449;-73
2023/09/18 03:38:29;;;;;;;57.10;2.60;;;;;;;;;;4953518;28;20481;-73
2023/09/18 03:41:00;;;;;;;56.23;2.30;;;;;;;;;;4953789;28;20456;-71
2023/09/18 03:43:27;;;;;;;56.80;2.93;;;;;;;;;;4953941;28;20441;-72
2023/09/18 03:45:54;;;;;;;57.00;3.03;;;;;;;;;;4953668;28;20463;-69
2023/09/18 03:48:22;;;;;;;57.40;2.60;;;;;;;;;;4953618;28;20472;-70
2023/09/18 03:50:49;;;;;;;56.80;2.70;;;;;;;;;;4953574;28;20455;-72
2023/09/18 03:53:16;;;;;;;56.93;2.70;;;;;;;;;;4953875;28;20445;-72
2023/09/18 03:55:43;;;;;;;56.70;2.47;;;;;;;;;;4953581;28;20494;-73
2023/09/18 03:58:13;;;;;;;58.70;4.33;;;;;;;;;;4953472;28;20476;-73
2023/09/18 04:00:40;;;;;;;56.87;2.73;;;;;;;;;;4953553;28;20520;-71
2023/09/18 04:03:07;;;;;;;56.70;3.30;;;;;;;;;;4952704;28;20445;-69
2023/09/18 04:05:34;;;;;;;56.40;2.20;;;;;;;;;;4953554;28;20445;-71
2023/09/18 04:08:02;;;;;;;56.90;2.60;;;;;;;;;;4953263;28;20483;-72
2023/09/18 04:10:29;;;;;;;57.50;3.13;;;;;;;;;;4953424;28;20886;-72
2023/09/18 04:12:55;;;;;;;57.20;2.40;;;;;;;;;;4953445;28;20457;-72
2023/09/18 04:15:24;;;;;;;56.70;2.80;;;;;;;;;;4952570;28;20731;-72
2023/09/18 04:17:51;;;;;;;56.90;2.50;;;;;;;;;;4944898;29;20644;-72
2023/09/18 04:20:19;;;;;;;57.00;3.10;;;;;;;;;;4937981;28;20460;-73
2023/09/18 04:22:49;;;;;;;57.87;3.00;;;;;;;;;;4950128;29;20454;-72
2023/09/18 04:25:16;;;;;;;56.67;2.40;;;;;;;;;;4934106;29;20457;-70
2023/09/18 04:27:43;;;;;;;56.90;2.87;;;;;;;;;;4933627;29;20468;-70
2023/09/18 04:30:11;;;;;;;57.37;3.17;;;;;;;;;;4946270;29;20455;-71
2023/09/18 04:32:39;;;;;;;58.40;2.80;;;;;;;;;;4935180;28;20454;-71
2023/09/18 04:35:08;;;;;;;56.70;2.80;;;;;;;;;;4933981;29;20853;-72
2023/09/18 04:37:38;;;;;;;56.70;2.63;;;;;;;;;;4934911;29;20557;-72
2023/09/18 04:40:09;;;;;;;56.53;2.30;;;;;;;;;;4953031;28;21010;-71
2023/09/18 04:42:36;;;;;;;56.97;2.57;;;;;;;;;;4952835;28;20453;-71
2023/09/18 04:45:03;;;;;;;58.60;2.70;;;;;;;;;;4941457;29;20549;-72
2023/09/18 04:47:30;;;;;;;56.50;3.10;;;;;;;;;;4933737;29;20480;-71
2023/09/18 04:49:59;;;;;;;56.73;2.43;;;;;;;;;;4934064;29;20457;-71
2023/09/18 04:52:26;;;;;;;56.70;2.70;;;;;;;;;;4933686;29;20462;-69
2023/09/18 04:54:54;;;;;;;57.77;2.30;;;;;;;;;;4933632;29;20499;-72
2023/09/18 04:57:22;;;;;;;56.63;2.43;;;;;;;;;;4933197;29;20488;-71
2023/09/18 04:59:49;;;;;;;56.47;2.43;;;;;;;;;;4952868;29;20452;-72
2023/09/18 05:02:16;;;;;;;57.07;2.60;;;;;;;;;;4953040;28;20457;-70
2023/09/18 05:04:43;;;;;;;56.67;2.47;;;;;;;;;;4952822;28;20445;-72
2023/09/18 05:07:11;;;;;;;56.70;2.33;;;;;;;;;;4952483;28;20472;-69
2023/09/18 05:09:40;;;;;;;56.70;2.40;;;;;;;;;;4952700;28;20453;-70
2023/09/18 05:12:13;;;;;;;56.50;2.73;;;;;;;;;;4952552;28;20452;-71
2023/09/18 05:14:40;;;;;;;57.17;2.80;;;;;;;;;;4955319;28;20678;-72
2023/09/18 05:17:07;;;;;;;56.23;2.37;;;;;;;;;;4956276;28;20984;-72
2023/09/18 05:19:34;;;;;;;56.90;2.30;;;;;;;;;;4956504;28;20459;-70
2023/09/18 05:22:01;;;;;;;56.70;2.90;;;;;;;;;;4956485;28;20467;-72
2023/09/18 05:24:30;;;;;;;56.50;2.20;;;;;;;;;;4947696;28;20462;-69
2023/09/18 05:26:57;;;;;;;56.70;2.50;;;;;;;;;;4953895;28;20496;-71
2023/09/18 05:29:24;;;;;;;56.47;2.60;;;;;;;;;;4948375;28;20455;-72
2023/09/18 05:31:51;;;;;;;57.00;2.40;;;;;;;;;;4948076;28;20456;-72
2023/09/18 05:34:18;;;;;;;57.30;2.50;;;;;;;;;;4956272;28;20495;-72
2023/09/18 05:36:45;;;;;;;57.37;3.33;;;;;;;;;;4947785;28;20599;-71
2023/09/18 05:39:12;;;;;;;57.10;2.73;;;;;;;;;;4941810;28;20465;-71
2023/09/18 05:41:41;;;;;;;56.77;2.87;;;;;;;;;;4938727;29;20461;-71
2023/09/18 05:44:09;;;;;;;56.67;2.67;;;;;;;;;;4950546;28;20456;-72
2023/09/18 05:46:36;;;;;;;56.70;2.77;;;;;;;;;;4936559;29;20505;-72
2023/09/18 05:49:04;;;;;;;56.87;2.80;;;;;;;;;;4936803;29;20450;-72
2023/09/18 05:51:32;;;;;;;59.97;2.90;;;;;;;;;;4936970;29;20569;-72
2023/09/18 05:54:00;;;;;;;56.70;2.50;;;;;;;;;;4936868;29;20540;-71
2023/09/18 05:56:27;;;;;;;56.40;2.40;;;;;;;;;;4936827;29;20486;-73
2023/09/18 05:58:55;;;;;;;56.77;2.80;;;;;;;;;;4936798;29;20445;-73
2023/09/18 06:01:22;;;;;;;57.30;4.00;;;;;;;;;;4936625;29;20476;-74
2023/09/18 06:03:49;;;;;;;56.90;2.77;;;;;;;;;;4936515;29;20455;-71
2023/09/18 06:06:17;;;;;;;56.77;2.37;;;;;;;;;;4936300;29;20445;-71
2023/09/18 06:08:44;;;;;;;56.90;2.60;;;;;;;;;;4936633;29;20822;-70
2023/09/18 06:11:11;;;;;;;56.30;2.20;;;;;;;;;;4936841;29;20452;-75
2023/09/18 06:13:38;;;;;;;57.73;3.67;;;;;;;;;;4936646;29;20464;-72
2023/09/18 06:16:08;;;;;;;56.60;2.57;;;;;;;;;;4943118;29;20489;-72
2023/09/18 06:18:37;;;;;;;56.60;2.73;;;;;;;;;;4944770;29;20468;-72
2023/09/18 06:21:04;;;;;;;56.90;2.50;;;;;;;;;;4942889;28;20461;-72
2023/09/18 06:23:32;;;;;;;56.47;2.07;;;;;;;;;;4944430;29;20969;-69
2023/09/18 06:25:59;;;;;;;56.40;2.10;;;;;;;;;;4935538;29;20824;-71
2023/09/18 06:28:26;;;;;;;58.70;2.73;;;;;;;;;;4936033;29;20839;-72
2023/09/18 06:30:53;;;;;;;56.40;2.40;;;;;;;;;;4952867;29;20845;-72
2023/09/18 06:33:22;;;;;;;56.13;2.00;;;;;;;;;;4936876;29;20823;-73
2023/09/18 06:35:51;;;;;;;56.60;2.30;;;;;;;;;;4936719;29;20504;-72
2023/09/18 06:38:18;;;;;;;56.27;2.10;;;;;;;;;;4942302;29;20563;-70
2023/09/18 06:40:45;;;;;;;56.43;2.33;;;;;;;;;;4954963;28;20457;-71
2023/09/18 06:43:12;;;;;;;57.33;3.10;;;;;;;;;;4954951;28;20453;-71
2023/09/18 06:45:39;;;;;;;55.97;2.03;;;;;;;;;;4954707;28;20448;-72
2023/09/18 06:48:07;;;;;;;56.10;2.00;;;;;;;;;;4954448;28;20481;-72
2023/09/18 06:50:36;;;;;;;56.20;2.30;;;;;;;;;;4954756;28;20449;-73
2023/09/18 06:53:03;;;;;;;56.73;2.43;;;;;;;;;;4954861;28;20455;-73
2023/09/18 06:55:30;;;;;;;56.40;2.43;;;;;;;;;;4954774;28;20495;-72
2023/09/18 06:57:57;;;;;;;56.37;2.20;;;;;;;;;;4954520;28;20465;-73
2023/09/18 07:00:25;;;;;;;56.37;2.10;;;;;;;;;;4954659;28;20449;-72
2023/09/18 07:02:52;;;;;;;56.17;2.40;;;;;;;;;;4954730;28;20449;-73
2023/09/18 07:05:19;;;;;;;57.00;2.50;;;;;;;;;;4954827;28;20540;-73
2023/09/18 07:07:48;;;;;;;56.33;1.97;;;;;;;;;;4954305;28;20999;-72
2023/09/18 07:10:15;;;;;;;62.73;4.20;;;;;;;;;;4954527;28;20449;-72
2023/09/18 07:12:42;;;;;;;58.37;2.53;;;;;;;;;;4954303;28;20456;-72
2023/09/18 07:15:09;;;;;;;60.63;2.67;;;;;;;;;;4954049;28;20489;-73
2023/09/18 07:17:36;;;;;;;57.43;3.10;;;;;;;;;;4953886;28;20469;-72
2023/09/18 07:20:09;;;;;;;58.43;2.17;;;;;;;;;;4954535;28;20457;-72
2023/09/18 07:22:37;;;;;;;56.20;2.20;;;;;;;;;;4954285;28;20460;-72
2023/09/18 07:25:07;;;;;;;56.30;1.90;;;;;;;;;;4954192;28;20567;-72
2023/09/18 07:27:36;;;;;;;56.70;2.50;;;;;;;;;;4953761;28;20483;-73
2023/09/18 07:30:04;;;;;;;56.90;2.00;;;;;;;;;;4954141;28;20875;-74
2023/09/18 07:32:32;;;;;;;57.07;2.20;;;;;;;;;;4949677;28;20463;-71
2023/09/18 07:34:59;;;;;;;56.30;2.30;;;;;;;;;;4951394;29;20489;-72
2023/09/18 07:37:27;;;;;;;56.37;2.30;;;;;;;;;;4952871;28;20883;-71
2023/09/18 07:39:54;;;;;;;56.20;2.17;;;;;;;;;;4953267;28;20480;-72
2023/09/18 07:42:25;;;;;;;57.83;2.37;;;;;;;;;;4953550;28;20456;-71
2023/09/18 07:44:52;;;;;;;56.20;2.00;;;;;;;;;;4953077;28;20456;-71
2023/09/18 07:47:19;;;;;;;56.10;2.13;;;;;;;;;;4953044;28;20473;-71
2023/09/18 07:49:47;;;;;;;56.30;2.13;;;;;;;;;;4953552;28;20866;-72
2023/09/18 07:52:14;;;;;;;56.50;2.00;;;;;;;;;;4953582;28;20445;-72
2023/09/18 07:54:41;;;;;;;57.80;2.50;;;;;;;;;;4953307;28;20519;-71
2023/09/18 07:57:09;;;;;;;56.17;2.13;;;;;;;;;;4953606;28;20464;-72
2023/09/18 07:59:38;;;;;;;56.80;2.83;;;;;;;;;;4953623;28;20512;-71
2023/09/18 08:02:06;;;;;;;56.07;1.90;;;;;;;;;;4953714;28;20465;-71
2023/09/18 08:04:33;;;;;;;57.07;2.93;;;;;;;;;;4953390;28;20941;-72
2023/09/18 08:07:00;;;;;;;57.73;2.50;;;;;;;;;;4953479;28;20745;-71
2023/09/18 08:09:29;;;;;;;56.43;2.50;;;;;;;;;;4953412;28;20452;-70
2023/09/18 08:11:56;;;;;;;57.37;3.50;;;;;;;;;;4953480;28;20453;-70
2023/09/18 08:14:24;;;;;;;60.30;4.30;;;;;;;;;;4952834;28;20544;-71
2023/09/18 08:16:57;;;;;;;56.17;2.20;;;;;;;;;;4945064;28;20501;-71
2023/09/18 08:19:26;;;;;;;56.17;2.37;;;;;;;;;;4944486;28;20934;-70
2023/09/18 08:21:53;;;;;;;56.27;2.13;;;;;;;;;;4942989;28;20462;-70
2023/09/18 08:24:20;;;;;;;58.50;2.50;;;;;;;;;;4934269;29;20489;-70
2023/09/18 08:26:47;;;;;;;56.17;2.20;;;;;;;;;;4933896;29;20470;-70
2023/09/18 08:29:15;;;;;;;56.80;3.50;;;;;;;;;;4936908;29;20568;-70
2023/09/18 08:31:42;;;;;;;56.37;2.30;;;;;;;;;;4944158;28;20460;-71
2023/09/18 08:34:10;;;;;;;56.07;1.87;;;;;;;;;;4938190;29;20449;-70
2023/09/18 08:36:37;;;;;;;58.67;3.40;;;;;;;;;;4944579;28;20507;-73
2023/09/18 08:39:06;;;;;;;56.80;2.73;;;;;;;;;;4933802;29;20469;-70
2023/09/18 08:41:33;;;;;;;56.03;1.80;;;;;;;;;;4933911;29;20484;-71
2023/09/18 08:44:03;;;;;;;56.07;1.80;;;;;;;;;;4952956;28;20445;-70
2023/09/18 08:46:30;;;;;;;56.97;2.10;;;;;;;;;;4952526;28;20472;-70
2023/09/18 08:48:57;;;;;;;56.07;1.90;;;;;;;;;;4952375;28;20460;-70
2023/09/18 08:51:26;;;;;;;56.70;2.60;;;;;;;;;;4952952;28;20577;-71
2023/09/18 08:53:53;;;;;;;56.27;1.80;;;;;;;;;;4952819;28;20456;-70
2023/09/18 08:56:21;;;;;;;56.03;1.90;;;;;;;;;;4952529;28;20485;-71
2023/09/18 08:58:49;;;;;;;56.07;1.80;;;;;;;;;;4952655;28;20837;-70
2023/09/18 09:01:16;;;;;;;56.13;1.80;;;;;;;;;;4952664;28;20535;-71
2023/09/18 09:03:45;;;;;;;56.17;1.80;;;;;;;;;;4952821;28;20459;-70
2023/09/18 09:06:13;;;;;;;55.83;1.80;;;;;;;;;;4952523;28;20871;-71
2023/09/18 09:08:41;;;;;;;56.07;1.80;;;;;;;;;;4952556;28;20551;-71
2023/09/18 09:11:08;;;;;;;56.00;1.70;;;;;;;;;;4952695;28;20449;-70
2023/09/18 09:13:35;;;;;;;56.40;1.90;;;;;;;;;;4952579;28;20453;-70
2023/09/18 09:16:03;;;;;;;56.20;1.70;;;;;;;;;;4952752;28;20508;-71
2023/09/18 09:18:33;;;;;;;56.17;1.90;;;;;;;;;;4952411;28;20528;-71
2023/09/18 09:21:01;;;;;;;56.70;2.10;;;;;;;;;;4952640;28;20449;-72
2023/09/18 09:23:28;;;;;;;56.37;2.20;;;;;;;;;;4952742;28;20508;-71
2023/09/18 09:26:13;;;;;;;57.73;2.93;;;;;;;;;;4952432;28;20445;-71
2023/09/18 09:28:42;;;;;;;56.80;2.70;;;;;;;;;;4952844;28;20456;-72
2023/09/18 09:31:10;;;;;;;56.33;2.10;;;;;;;;;;4952456;28;20829;-71
2023/09/18 09:33:38;;;;;;;56.70;2.43;;;;;;;;;;4952536;28;20456;-72
2023/09/18 09:36:06;;;;;;;56.30;2.10;;;;;;;;;;4952146;28;21004;-72
2023/09/18 09:38:34;;;;;;;56.40;2.00;;;;;;;;;;4952167;28;20838;-71
2023/09/18 09:41:02;;;;;;;56.30;1.90;;;;;;;;;;4952185;28;20449;-71
2023/09/18 09:43:30;;;;;;;55.87;2.20;;;;;;;;;;4952438;28;20487;-70
2023/09/18 09:45:59;;;;;;;55.87;2.00;;;;;;;;;;4951931;28;20976;-71
2023/09/18 09:48:26;;;;;;;57.00;2.30;;;;;;;;;;4952088;28;20536;-71
2023/09/18 09:50:55;;;;;;;56.27;2.00;;;;;;;;;;4952225;28;20925;-72
2023/09/18 09:53:42;;;;;;;56.13;2.00;;;;;;;;;;4952196;28;20879;-72
2023/09/18 09:56:10;;;;;;;56.37;2.00;;;;;;;;;;4952028;28;20484;-72
2023/09/18 09:58:38;;;;;;;56.17;2.00;;;;;;;;;;4952135;28;20448;-71
2023/09/18 10:01:10;;;;;;;56.20;2.00;;;;;;;;;;4953490;28;20925;-72
2023/09/18 10:03:38;;;;;;;57.07;2.57;;;;;;;;;;4955660;28;20453;-72
2023/09/18 10:06:06;;;;;;;56.13;1.90;;;;;;;;;;4955752;28;20445;-71
2023/09/18 10:08:33;;;;;;;56.50;2.00;;;;;;;;;;4955661;28;20462;-72
2023/09/18 10:11:03;;;;;;;56.13;2.03;;;;;;;;;;4955627;28;20471;-71
2023/09/18 10:13:34;;;;;;;56.37;2.20;;;;;;;;;;4955597;28;20511;-72
2023/09/18 10:16:06;;;;;;;55.87;1.93;;;;;;;;;;4946602;28;20499;-72
2023/09/18 10:18:37;;;;;;;56.20;2.00;;;;;;;;;;4947519;28;20507;-71
2023/09/18 10:21:12;;;;;;;56.30;2.10;;;;;;;;;;4938260;28;20450;-72
2023/09/18 10:23:44;;;;;;;56.33;2.07;;;;;;;;;;4947359;28;20452;-71
2023/09/18 10:26:13;;;;;;;56.37;2.40;;;;;;;;;;4936101;29;20445;-71
2023/09/18 10:28:41;;;;;;;56.57;2.40;;;;;;;;;;4937576;29;20457;-71
2023/09/18 10:31:09;;;;;;;57.20;2.33;;;;;;;;;;4944098;29;20460;-71
2023/09/18 10:33:36;;;;;;;56.17;2.00;;;;;;;;;;4943997;29;20449;-71
2023/09/18 10:36:04;;;;;;;56.67;2.50;;;;;;;;;;4935639;29;20489;-71
2023/09/18 10:38:32;;;;;;;56.57;2.40;;;;;;;;;;4942127;29;20568;-71
2023/09/18 10:40:59;;;;;;;56.50;2.20;;;;;;;;;;4955000;28;20821;-71
2023/09/18 10:43:27;;;;;;;56.67;2.50;;;;;;;;;;4954923;28;20464;-71
2023/09/18 10:45:55;;;;;;;56.57;2.30;;;;;;;;;;4954952;28;20543;-71
2023/09/18 10:48:24;;;;;;;57.77;2.60;;;;;;;;;;4955019;28;20563;-72
2023/09/18 10:50:51;;;;;;;56.50;2.20;;;;;;;;;;4954905;28;20837;-71
2023/09/18 10:53:21;;;;;;;56.47;2.20;;;;;;;;;;4955333;28;20771;-72
2023/09/18 10:55:51;;;;;;;56.40;2.17;;;;;;;;;;4954439;28;20463;-72
2023/09/18 10:58:25;;;;;;;56.87;2.60;;;;;;;;;;4954689;28;20480;-72
2023/09/18 11:00:53;;;;;;;57.57;2.80;;;;;;;;;;4954852;28;20452;-71
2023/09/18 11:03:24;;;;;;;56.70;3.03;;;;;;;;;;4954684;28;20459;-71
2023/09/18 11:06:03;;;;;;;56.47;2.50;;;;;;;;;;4951655;28;20445;-72
2023/09/18 11:08:33;;;;;;;56.67;2.50;;;;;;;;;;4945957;29;20832;-71
2023/09/18 11:11:04;;;;;;;56.60;2.40;;;;;;;;;;4954421;28;20477;-71
2023/09/18 11:13:32;;;;;;;56.33;2.27;;;;;;;;;;4954641;28;20461;-71
2023/09/18 11:16:03;;;;;;;56.33;2.30;;;;;;;;;;4954127;28;20972;-71
2023/09/18 11:18:35;;;;;;;56.27;2.23;;;;;;;;;;4954122;28;20477;-70
2023/09/18 11:21:09;;;;;;;56.60;2.30;;;;;;;;;;4954185;28;20456;-71
2023/09/18 11:23:36;;;;;;;62.63;3.00;;;;;;;;;;4954324;28;20456;-70
2023/09/18 11:26:06;;;;;;;56.40;2.40;;;;;;;;;;4950077;28;20878;-70
2023/09/18 11:28:33;;;;;;;56.67;2.80;;;;;;;;;;4949235;29;20457;-71
2023/09/18 11:31:02;;;;;;;56.27;2.20;;;;;;;;;;4945982;28;20804;-71
2023/09/18 11:33:34;;;;;;;57.93;3.30;;;;;;;;;;4947991;28;20490;-71
2023/09/18 11:36:05;;;;;;;56.20;2.03;;;;;;;;;;4934746;29;20830;-72
2023/09/18 11:38:33;;;;;;;57.03;2.47;;;;;;;;;;4949334;29;20982;-71
2023/09/18 11:41:03;;;;;;;56.17;2.00;;;;;;;;;;4954053;28;20460;-71
2023/09/18 11:43:30;;;;;;;56.30;2.30;;;;;;;;;;4954005;28;20457;-71
2023/09/18 11:45:58;;;;;;;56.47;2.23;;;;;;;;;;4954024;28;20468;-71
2023/09/18 11:48:27;;;;;;;57.20;3.00;;;;;;;;;;4953837;28;20871;-72
2023/09/18 11:50:57;;;;;;;56.40;2.40;;;;;;;;;;4944507;28;20462;-71
2023/09/18 11:53:25;;;;;;;56.37;2.13;;;;;;;;;;4934570;29;20960;-71
2023/09/18 11:55:52;;;;;;;56.37;2.47;;;;;;;;;;4934833;29;20454;-72
2023/09/18 11:58:23;;;;;;;56.27;2.30;;;;;;;;;;4934053;29;20497;-71
2023/09/18 12:00:50;;;;;;;56.37;2.40;;;;;;;;;;4951047;29;20833;-71
2023/09/18 12:03:25;;;;;;;56.40;2.50;;;;;;;;;;4953875;28;20453;-71
2023/09/18 12:05:53;;;;;;;56.40;2.50;;;;;;;;;;4953524;28;20460;-70
2023/09/18 12:08:22;;;;;;;56.40;2.17;;;;;;;;;;4953195;28;20465;-71
2023/09/18 12:10:50;;;;;;;56.40;2.30;;;;;;;;;;4953383;28;20539;-70
2023/09/18 12:13:17;;;;;;;56.27;2.20;;;;;;;;;;4953420;28;20946;-70
2023/09/18 12:15:45;;;;;;;56.30;2.40;;;;;;;;;;4947217;28;20500;-70
2023/09/18 12:18:13;;;;;;;56.90;2.07;;;;;;;;;;4941789;29;20493;-71
2023/09/18 12:20:46;;;;;;;56.60;2.23;;;;;;;;;;4942359;29;20462;-71
2023/09/18 12:23:13;;;;;;;56.00;2.10;;;;;;;;;;4944785;28;20504;-71
2023/09/18 12:25:41;;;;;;;56.20;1.90;;;;;;;;;;4953304;28;20464;-70
2023/09/18 12:28:09;;;;;;;56.20;2.20;;;;;;;;;;4944879;28;20471;-69
2023/09/18 12:30:36;;;;;;;55.87;1.97;;;;;;;;;;4948987;28;20477;-71
2023/09/18 12:33:04;;;;;;;56.03;1.97;;;;;;;;;;4959217;29;20434;-70
2023/09/18 12:35:31;;;;;;;56.07;2.00;;;;;;;;;;4951276;29;20501;-71
2023/09/18 12:38:00;;;;;;;55.97;2.10;;;;;;;;;;4953351;29;20490;-70
2023/09/18 12:40:27;;;;;;;55.83;1.73;;;;;;;;;;4971766;28;20449;-71
2023/09/18 12:42:57;;;;;;;56.20;1.80;;;;;;;;;;4972395;28;20449;-70
2023/09/18 12:45:25;;;;;;;56.13;2.17;;;;;;;;;;4972043;28;20437;-70
2023/09/18 12:47:52;;;;;;;56.07;2.10;;;;;;;;;;4972191;28;20468;-70
2023/09/18 12:50:19;;;;;;;56.07;2.10;;;;;;;;;;4973339;28;20456;-70
2023/09/18 12:52:46;;;;;;;56.07;2.00;;;;;;;;;;4971777;28;20457;-70
2023/09/18 12:55:24;;;;;;;56.10;1.90;;;;;;;;;;4954037;29;20469;-70
2023/09/18 12:57:51;;;;;;;56.17;1.83;;;;;;;;;;4949814;29;20643;-70
2023/09/18 13:00:22;;;;;;;56.70;2.80;;;;;;;;;;4951598;29;20831;-69
2023/09/18 13:02:51;;;;;;;56.40;1.90;;;;;;;;;;4952460;29;20444;-69
2023/09/18 13:05:21;;;;;;;55.87;1.90;;;;;;;;;;4950580;29;20922;-70
2023/09/18 13:07:50;;;;;;;55.90;2.10;;;;;;;;;;4951714;29;21062;-70
2023/09/18 13:10:17;;;;;;;56.27;1.73;;;;;;;;;;4951501;29;20513;-68
2023/09/18 13:12:45;;;;;;;56.07;1.87;;;;;;;;;;4951602;29;20442;-69
2023/09/18 13:15:12;;;;;;;56.40;1.90;;;;;;;;;;4952098;29;20464;-67
2023/09/18 13:17:45;;;;;;;56.00;2.10;;;;;;;;;;4950113;29;20470;-70
2023/09/18 13:20:13;;;;;;;60.20;2.57;;;;;;;;;;4951197;29;20464;-70
2023/09/18 13:22:41;;;;;;;57.23;1.87;;;;;;;;;;4950622;29;20946;-69
2023/09/18 13:25:10;;;;;;;56.80;2.83;;;;;;;;;;4951545;29;20451;-69
2023/09/18 13:27:37;;;;;;;55.97;1.80;;;;;;;;;;4950831;29;20501;-70
2023/09/18 13:30:07;;;;;;;56.30;1.90;;;;;;;;;;4950624;29;20517;-71
2023/09/18 13:32:35;;;;;;;56.30;2.03;;;;;;;;;;4951661;29;20442;-69
2023/09/18 13:35:05;;;;;;;55.53;1.80;;;;;;;;;;4970486;28;20455;-69
2023/09/18 13:37:33;;;;;;;55.97;1.73;;;;;;;;;;4961648;28;20489;-70
2023/09/18 13:40:02;;;;;;;56.37;1.70;;;;;;;;;;4956375;28;20456;-71
2023/09/18 13:42:31;;;;;;;56.50;2.77;;;;;;;;;;4956195;28;20515;-70
2023/09/18 13:45:00;;;;;;;55.47;1.83;;;;;;;;;;4956384;28;20484;-71
2023/09/18 13:47:27;;;;;;;56.17;1.87;;;;;;;;;;4956292;28;20472;-71
2023/09/18 13:49:56;;;;;;;56.00;1.90;;;;;;;;;;4956174;28;20507;-71
2023/09/18 13:52:25;;;;;;;55.77;1.77;;;;;;;;;;4956318;28;20455;-71
2023/09/18 13:54:52;;;;;;;55.97;1.70;;;;;;;;;;4956125;28;20452;-71
2023/09/18 13:57:19;;;;;;;55.47;1.67;;;;;;;;;;4956102;28;20496;-71
2023/09/18 13:59:46;;;;;;;55.77;1.60;;;;;;;;;;4956040;28;20965;-71
2023/09/18 14:02:14;;;;;;;56.17;1.80;;;;;;;;;;4956130;28;20456;-70
2023/09/18 14:04:41;;;;;;;55.90;1.80;;;;;;;;;;4955934;28;20452;-71
2023/09/18 14:07:08;;;;;;;56.20;1.90;;;;;;;;;;4955539;28;20461;-71
2023/09/18 14:09:37;;;;;;;56.47;1.97;;;;;;;;;;4955888;28;20460;-70
2023/09/18 14:12:05;;;;;;;56.07;1.90;;;;;;;;;;4955702;28;20460;-70
2023/09/18 14:14:32;;;;;;;56.03;2.10;;;;;;;;;;4955126;28;20453;-70
2023/09/18 14:16:59;;;;;;;56.13;1.80;;;;;;;;;;4954242;28;20572;-70
2023/09/18 14:19:26;;;;;;;56.03;1.83;;;;;;;;;;4944610;29;20450;-70
2023/09/18 14:21:53;;;;;;;56.07;1.70;;;;;;;;;;4939247;29;20450;-69
2023/09/18 14:24:24;;;;;;;56.23;1.90;;;;;;;;;;4955372;28;20449;-70
2023/09/18 14:26:52;;;;;;;56.37;2.10;;;;;;;;;;4939631;28;20518;-70
2023/09/18 14:29:20;;;;;;;57.57;2.43;;;;;;;;;;4948258;29;20483;-70
2023/09/18 14:31:47;;;;;;;56.03;1.83;;;;;;;;;;4940372;28;20506;-70
2023/09/18 14:34:14;;;;;;;55.83;1.87;;;;;;;;;;4951489;29;20835;-70
2023/09/18 14:36:41;;;;;;;55.63;1.77;;;;;;;;;;4945678;29;20465;-69